sensor_id;sensor_type;location;lat;lon;timestamp;P1;durP1;ratioP1;P2;durP2;ratioP2
21120;SDS011;12519;43.318;21.898;2022-12-11T00:01:41;34.0;;;33.0;;
21120;SDS011;12519;43.318;21.898;2022-12-11T00:06:21;34.0;;;33.0;;
21120;SDS011;12519;43.318;21.898;2022-12-11T00:10:58;23.0;;;22.0;;
21120;SDS011;12519;43.318;21.898;2022-12-11T00:15:36;23.0;;;22.0;;
21120;SDS011;12519;43.318;21.898;2022-12-11T00:20:13;12.0;;;11.0;;
21120;SDS011;12519;43.318;21.898;2022-12-11T00:24:50;12.0;;;11.0;;
21120;SDS011;12519;43.318;21.898;2022-12-11T00:29:26;9.0;;;8.0;;
21120;SDS011;12519;43.318;21.898;2022-12-11T00:34:02;9.0;;;8.0;;
21120;SDS011;12519;43.318;21.898;2022-12-11T00:38:39;6.0;;;5.0;;
21120;SDS011;12519;43.318;21.898;2022-12-11T00:43:16;6.0;;;5.0;;
21120;SDS011;12519;43.318;21.898;2022-12-11T00:47:52;6.0;;;5.0;;
21120;SDS011;12519;43.318;21.898;2022-12-11T00:52:28;6.0;;;5.0;;
21120;SDS011;12519;43.318;21.898;2022-12-11T00:57:04;6.0;;;5.0;;
21120;SDS011;12519;43.318;21.898;2022-12-11T01:01:40;6.0;;;5.0;;
21120;SDS011;12519;43.318;21.898;2022-12-11T01:06:20;6.0;;;5.0;;
21120;SDS011;12519;43.318;21.898;2022-12-11T01:11:04;4.0;;;4.0;;
21120;SDS011;12519;43.318;21.898;2022-12-11T01:15:45;4.0;;;4.0;;
21120;SDS011;12519;43.318;21.898;2022-12-11T01:20:23;3.0;;;3.0;;
21120;SDS011;12519;43.318;21.898;2022-12-11T01:25:04;3.0;;;3.0;;
21120;SDS011;12519;43.318;21.898;2022-12-11T01:29:42;2.0;;;2.0;;
21120;SDS011;12519;43.318;21.898;2022-12-11T01:34:19;2.0;;;2.0;;
21120;SDS011;12519;43.318;21.898;2022-12-11T01:38:55;2.0;;;1.0;;
21120;SDS011;12519;43.318;21.898;2022-12-11T01:43:32;2.0;;;1.0;;
21120;SDS011;12519;43.318;21.898;2022-12-11T01:48:13;2.0;;;1.0;;
21120;SDS011;12519;43.318;21.898;2022-12-11T01:52:56;2.0;;;1.0;;
21120;SDS011;12519;43.318;21.898;2022-12-11T01:57:33;2.0;;;1.0;;
21120;SDS011;12519;43.318;21.898;2022-12-11T02:02:18;1.0;;;1.0;;
21120;SDS011;12519;43.318;21.898;2022-12-11T02:06:56;1.0;;;1.0;;
21120;SDS011;12519;43.318;21.898;2022-12-11T02:11:46;2.0;;;1.0;;
21120;SDS011;12519;43.318;21.898;2022-12-11T02:16:35;2.0;;;1.0;;
21120;SDS011;12519;43.318;21.898;2022-12-11T02:21:22;2.0;;;1.0;;
21120;SDS011;12519;43.318;21.898;2022-12-11T02:26:04;2.0;;;1.0;;
21120;SDS011;12519;43.318;21.898;2022-12-11T02:30:46;2.0;;;1.0;;
21120;SDS011;12519;43.318;21.898;2022-12-11T02:35:27;2.0;;;1.0;;
21120;SDS011;12519;43.318;21.898;2022-12-11T02:40:16;1.0;;;1.0;;
21120;SDS011;12519;43.318;21.898;2022-12-11T02:45:06;1.0;;;1.0;;
21120;SDS011;12519;43.318;21.898;2022-12-11T02:49:48;1.0;;;1.0;;
21120;SDS011;12519;43.318;21.898;2022-12-11T02:54:30;1.0;;;1.0;;
21120;SDS011;12519;43.318;21.898;2022-12-11T02:59:14;1.0;;;1.0;;
21120;SDS011;12519;43.318;21.898;2022-12-11T03:04:04;1.0;;;1.0;;
21120;SDS011;12519;43.318;21.898;2022-12-11T03:08:41;1.0;;;1.0;;
21120;SDS011;12519;43.318;21.898;2022-12-11T03:13:17;2.0;;;2.0;;
21120;SDS011;12519;43.318;21.898;2022-12-11T03:17:58;2.0;;;2.0;;
21120;SDS011;12519;43.318;21.898;2022-12-11T03:22:53;3.0;;;2.0;;
21120;SDS011;12519;43.318;21.898;2022-12-11T03:27:55;3.0;;;2.0;;
21120;SDS011;12519;43.318;21.898;2022-12-11T03:32:46;3.0;;;2.0;;
21120;SDS011;12519;43.318;21.898;2022-12-11T03:37:35;3.0;;;2.0;;
21120;SDS011;12519;43.318;21.898;2022-12-11T03:42:17;3.0;;;3.0;;
21120;SDS011;12519;43.318;21.898;2022-12-11T03:47:00;3.0;;;3.0;;
21120;SDS011;12519;43.318;21.898;2022-12-11T03:51:44;4.0;;;4.0;;
21120;SDS011;12519;43.318;21.898;2022-12-11T03:56:25;4.0;;;4.0;;
21120;SDS011;12519;43.318;21.898;2022-12-11T04:01:09;5.0;;;5.0;;
21120;SDS011;12519;43.318;21.898;2022-12-11T04:05:47;5.0;;;5.0;;
21120;SDS011;12519;43.318;21.898;2022-12-11T04:10:31;6.0;;;4.0;;
21120;SDS011;12519;43.318;21.898;2022-12-11T04:15:08;6.0;;;4.0;;
21120;SDS011;12519;43.318;21.898;2022-12-11T04:19:45;6.0;;;4.0;;
21120;SDS011;12519;43.318;21.898;2022-12-11T04:24:21;6.0;;;4.0;;
21120;SDS011;12519;43.318;21.898;2022-12-11T04:28:57;6.0;;;4.0;;
21120;SDS011;12519;43.318;21.898;2022-12-11T04:33:34;6.0;;;4.0;;
21120;SDS011;12519;43.318;21.898;2022-12-11T04:38:10;6.0;;;4.0;;
21120;SDS011;12519;43.318;21.898;2022-12-11T04:42:45;5.0;;;3.0;;
21120;SDS011;12519;43.318;21.898;2022-12-11T04:47:22;5.0;;;3.0;;
21120;SDS011;12519;43.318;21.898;2022-12-11T04:51:58;4.0;;;3.0;;
21120;SDS011;12519;43.318;21.898;2022-12-11T04:56:34;4.0;;;3.0;;
21120;SDS011;12519;43.318;21.898;2022-12-11T05:01:10;3.0;;;3.0;;
21120;SDS011;12519;43.318;21.898;2022-12-11T05:05:49;3.0;;;3.0;;
21120;SDS011;12519;43.318;21.898;2022-12-11T05:10:28;2.0;;;2.0;;
21120;SDS011;12519;43.318;21.898;2022-12-11T05:15:04;2.0;;;2.0;;
21120;SDS011;12519;43.318;21.898;2022-12-11T05:19:42;2.0;;;2.0;;
21120;SDS011;12519;43.318;21.898;2022-12-11T05:24:18;2.0;;;2.0;;
21120;SDS011;12519;43.318;21.898;2022-12-11T05:28:55;2.0;;;2.0;;
21120;SDS011;12519;43.318;21.898;2022-12-11T05:33:31;2.0;;;2.0;;
21120;SDS011;12519;43.318;21.898;2022-12-11T05:38:09;2.0;;;2.0;;
21120;SDS011;12519;43.318;21.898;2022-12-11T05:42:45;2.0;;;2.0;;
21120;SDS011;12519;43.318;21.898;2022-12-11T05:47:21;2.0;;;2.0;;
21120;SDS011;12519;43.318;21.898;2022-12-11T05:51:57;2.0;;;2.0;;
21120;SDS011;12519;43.318;21.898;2022-12-11T05:56:33;2.0;;;2.0;;
21120;SDS011;12519;43.318;21.898;2022-12-11T06:01:12;2.0;;;2.0;;
21120;SDS011;12519;43.318;21.898;2022-12-11T06:05:54;2.0;;;2.0;;
21120;SDS011;12519;43.318;21.898;2022-12-11T06:10:30;2.0;;;2.0;;
21120;SDS011;12519;43.318;21.898;2022-12-11T06:15:08;2.0;;;2.0;;
21120;SDS011;12519;43.318;21.898;2022-12-11T06:19:45;2.0;;;1.0;;
21120;SDS011;12519;43.318;21.898;2022-12-11T06:24:21;2.0;;;1.0;;
21120;SDS011;12519;43.318;21.898;2022-12-11T06:28:57;2.0;;;1.0;;
21120;SDS011;12519;43.318;21.898;2022-12-11T06:33:34;4.0;;;3.0;;
21120;SDS011;12519;43.318;21.898;2022-12-11T06:38:11;4.0;;;3.0;;
21120;SDS011;12519;43.318;21.898;2022-12-11T06:42:47;5.0;;;5.0;;
21120;SDS011;12519;43.318;21.898;2022-12-11T06:47:24;5.0;;;5.0;;
21120;SDS011;12519;43.318;21.898;2022-12-11T06:52:03;6.0;;;5.0;;
21120;SDS011;12519;43.318;21.898;2022-12-11T06:56:41;6.0;;;5.0;;
21120;SDS011;12519;43.318;21.898;2022-12-11T07:01:18;6.0;;;5.0;;
21120;SDS011;12519;43.318;21.898;2022-12-11T07:06:02;6.0;;;5.0;;
21120;SDS011;12519;43.318;21.898;2022-12-11T07:10:39;4.0;;;4.0;;
21120;SDS011;12519;43.318;21.898;2022-12-11T07:15:16;4.0;;;4.0;;
21120;SDS011;12519;43.318;21.898;2022-12-11T07:19:53;3.0;;;2.0;;
21120;SDS011;12519;43.318;21.898;2022-12-11T07:24:29;3.0;;;2.0;;
21120;SDS011;12519;43.318;21.898;2022-12-11T07:29:05;3.0;;;2.0;;
21120;SDS011;12519;43.318;21.898;2022-12-11T07:33:41;6.0;;;3.0;;
21120;SDS011;12519;43.318;21.898;2022-12-11T07:38:18;6.0;;;3.0;;
21120;SDS011;12519;43.318;21.898;2022-12-11T07:42:54;8.0;;;4.0;;
21120;SDS011;12519;43.318;21.898;2022-12-11T07:47:30;8.0;;;4.0;;
21120;SDS011;12519;43.318;21.898;2022-12-11T07:52:06;6.0;;;4.0;;
21120;SDS011;12519;43.318;21.898;2022-12-11T07:56:42;6.0;;;4.0;;
21120;SDS011;12519;43.318;21.898;2022-12-11T08:01:20;4.0;;;3.0;;
21120;SDS011;12519;43.318;21.898;2022-12-11T08:05:58;4.0;;;3.0;;
21120;SDS011;12519;43.318;21.898;2022-12-11T08:10:35;4.0;;;4.0;;
21120;SDS011;12519;43.318;21.898;2022-12-11T08:15:11;4.0;;;4.0;;
21120;SDS011;12519;43.318;21.898;2022-12-11T08:19:47;4.0;;;4.0;;
21120;SDS011;12519;43.318;21.898;2022-12-11T08:24:23;4.0;;;4.0;;
21120;SDS011;12519;43.318;21.898;2022-12-11T08:28:59;4.0;;;4.0;;
21120;SDS011;12519;43.318;21.898;2022-12-11T08:33:37;6.0;;;6.0;;
21120;SDS011;12519;43.318;21.898;2022-12-11T08:38:16;6.0;;;6.0;;
21120;SDS011;12519;43.318;21.898;2022-12-11T08:42:52;9.0;;;8.0;;
21120;SDS011;12519;43.318;21.898;2022-12-11T08:47:28;9.0;;;8.0;;
21120;SDS011;12519;43.318;21.898;2022-12-11T08:52:05;7.0;;;6.0;;
21120;SDS011;12519;43.318;21.898;2022-12-11T08:56:41;7.0;;;6.0;;
21120;SDS011;12519;43.318;21.898;2022-12-11T09:01:18;5.0;;;4.0;;
21120;SDS011;12519;43.318;21.898;2022-12-11T09:06:02;5.0;;;4.0;;
21120;SDS011;12519;43.318;21.898;2022-12-11T09:10:41;4.0;;;4.0;;
21120;SDS011;12519;43.318;21.898;2022-12-11T09:15:18;4.0;;;4.0;;
21120;SDS011;12519;43.318;21.898;2022-12-11T09:19:54;4.0;;;4.0;;
21120;SDS011;12519;43.318;21.898;2022-12-11T09:24:30;4.0;;;4.0;;
21120;SDS011;12519;43.318;21.898;2022-12-11T09:29:06;4.0;;;4.0;;
21120;SDS011;12519;43.318;21.898;2022-12-11T09:33:43;6.0;;;6.0;;
21120;SDS011;12519;43.318;21.898;2022-12-11T09:38:20;6.0;;;6.0;;
21120;SDS011;12519;43.318;21.898;2022-12-11T09:42:57;9.0;;;8.0;;
21120;SDS011;12519;43.318;21.898;2022-12-11T09:48:10;9.0;;;8.0;;
21120;SDS011;12519;43.318;21.898;2022-12-11T09:53:01;10.0;;;9.0;;
21120;SDS011;12519;43.318;21.898;2022-12-11T09:57:55;10.0;;;9.0;;
21120;SDS011;12519;43.318;21.898;2022-12-11T10:02:47;11.0;;;10.0;;
21120;SDS011;12519;43.318;21.898;2022-12-11T10:07:54;11.0;;;10.0;;
21120;SDS011;12519;43.318;21.898;2022-12-11T10:12:47;9.0;;;8.0;;
21120;SDS011;12519;43.318;21.898;2022-12-11T10:17:41;9.0;;;8.0;;
21120;SDS011;12519;43.318;21.898;2022-12-11T10:22:20;7.0;;;6.0;;
21120;SDS011;12519;43.318;21.898;2022-12-11T10:27:07;7.0;;;6.0;;
21120;SDS011;12519;43.318;21.898;2022-12-11T10:31:52;6.0;;;5.0;;
21120;SDS011;12519;43.318;21.898;2022-12-11T10:36:33;6.0;;;5.0;;
21120;SDS011;12519;43.318;21.898;2022-12-11T10:41:14;5.0;;;4.0;;
21120;SDS011;12519;43.318;21.898;2022-12-11T10:45:57;5.0;;;4.0;;
21120;SDS011;12519;43.318;21.898;2022-12-11T10:50:33;5.0;;;4.0;;
21120;SDS011;12519;43.318;21.898;2022-12-11T10:55:16;5.0;;;4.0;;
21120;SDS011;12519;43.318;21.898;2022-12-11T11:00:03;5.0;;;5.0;;
21120;SDS011;12519;43.318;21.898;2022-12-11T11:05:11;5.0;;;5.0;;
21120;SDS011;12519;43.318;21.898;2022-12-11T11:10:05;6.0;;;5.0;;
21120;SDS011;12519;43.318;21.898;2022-12-11T11:15:00;6.0;;;5.0;;
21120;SDS011;12519;43.318;21.898;2022-12-11T11:19:45;6.0;;;5.0;;
21120;SDS011;12519;43.318;21.898;2022-12-11T11:24:25;6.0;;;5.0;;
21120;SDS011;12519;43.318;21.898;2022-12-11T11:29:15;6.0;;;5.0;;
21120;SDS011;12519;43.318;21.898;2022-12-11T11:34:05;6.0;;;6.0;;
21120;SDS011;12519;43.318;21.898;2022-12-11T11:39:05;6.0;;;6.0;;
21120;SDS011;12519;43.318;21.898;2022-12-11T11:43:58;6.0;;;6.0;;
21120;SDS011;12519;43.318;21.898;2022-12-11T11:48:43;6.0;;;6.0;;
21120;SDS011;12519;43.318;21.898;2022-12-11T11:53:33;8.0;;;8.0;;
21120;SDS011;12519;43.318;21.898;2022-12-11T11:58:14;8.0;;;8.0;;
21120;SDS011;12519;43.318;21.898;2022-12-11T12:03:02;11.0;;;10.0;;
21120;SDS011;12519;43.318;21.898;2022-12-11T12:07:51;11.0;;;10.0;;
21120;SDS011;12519;43.318;21.898;2022-12-11T12:13:02;9.0;;;8.0;;
21120;SDS011;12519;43.318;21.898;2022-12-11T12:18:09;9.0;;;8.0;;
21120;SDS011;12519;43.318;21.898;2022-12-11T12:23:24;7.0;;;6.0;;
21120;SDS011;12519;43.318;21.898;2022-12-11T12:28:50;7.0;;;6.0;;
21120;SDS011;12519;43.318;21.898;2022-12-11T12:33:59;12.0;;;10.0;;
21120;SDS011;12519;43.318;21.898;2022-12-11T12:39:10;12.0;;;10.0;;
21120;SDS011;12519;43.318;21.898;2022-12-11T12:44:21;16.0;;;13.0;;
21120;SDS011;12519;43.318;21.898;2022-12-11T12:49:02;16.0;;;13.0;;
21120;SDS011;12519;43.318;21.898;2022-12-11T12:53:48;17.0;;;10.0;;
21120;SDS011;12519;43.318;21.898;2022-12-11T12:58:39;17.0;;;10.0;;
21120;SDS011;12519;43.318;21.898;2022-12-11T13:03:18;18.0;;;8.0;;
21120;SDS011;12519;43.318;21.898;2022-12-11T13:07:59;18.0;;;8.0;;
21120;SDS011;12519;43.318;21.898;2022-12-11T13:12:40;14.0;;;9.0;;
21120;SDS011;12519;43.318;21.898;2022-12-11T13:17:23;14.0;;;9.0;;
21120;SDS011;12519;43.318;21.898;2022-12-11T13:22:19;11.0;;;10.0;;
21120;SDS011;12519;43.318;21.898;2022-12-11T13:27:07;11.0;;;10.0;;
21120;SDS011;12519;43.318;21.898;2022-12-11T13:31:58;12.0;;;10.0;;
21120;SDS011;12519;43.318;21.898;2022-12-11T13:36:57;12.0;;;10.0;;
21120;SDS011;12519;43.318;21.898;2022-12-11T13:41:38;13.0;;;11.0;;
21120;SDS011;12519;43.318;21.898;2022-12-11T13:46:22;13.0;;;11.0;;
21120;SDS011;12519;43.318;21.898;2022-12-11T13:51:12;12.0;;;10.0;;
21120;SDS011;12519;43.318;21.898;2022-12-11T13:55:56;12.0;;;10.0;;
21120;SDS011;12519;43.318;21.898;2022-12-11T14:00:37;11.0;;;10.0;;
21120;SDS011;12519;43.318;21.898;2022-12-11T14:05:14;11.0;;;10.0;;
21120;SDS011;12519;43.318;21.898;2022-12-11T14:09:50;11.0;;;10.0;;
21120;SDS011;12519;43.318;21.898;2022-12-11T14:14:33;12.0;;;11.0;;
21120;SDS011;12519;43.318;21.898;2022-12-11T14:19:18;12.0;;;11.0;;
21120;SDS011;12519;43.318;21.898;2022-12-11T14:23:58;12.0;;;12.0;;
21120;SDS011;12519;43.318;21.898;2022-12-11T14:28:40;12.0;;;12.0;;
21120;SDS011;12519;43.318;21.898;2022-12-11T14:33:20;12.0;;;11.0;;
21120;SDS011;12519;43.318;21.898;2022-12-11T14:38:09;12.0;;;11.0;;
21120;SDS011;12519;43.318;21.898;2022-12-11T14:42:59;12.0;;;10.0;;
21120;SDS011;12519;43.318;21.898;2022-12-11T14:47:53;12.0;;;10.0;;
21120;SDS011;12519;43.318;21.898;2022-12-11T14:52:35;12.0;;;10.0;;
21120;SDS011;12519;43.318;21.898;2022-12-11T14:57:21;12.0;;;10.0;;
21120;SDS011;12519;43.318;21.898;2022-12-11T15:02:19;11.0;;;10.0;;
21120;SDS011;12519;43.318;21.898;2022-12-11T15:07:15;11.0;;;10.0;;
21120;SDS011;12519;43.318;21.898;2022-12-11T15:11:56;47.0;;;32.0;;
21120;SDS011;12519;43.318;21.898;2022-12-11T15:16:47;47.0;;;32.0;;
21120;SDS011;12519;43.318;21.898;2022-12-11T15:21:28;83.0;;;54.0;;
21120;SDS011;12519;43.318;21.898;2022-12-11T15:26:10;83.0;;;54.0;;
21120;SDS011;12519;43.318;21.898;2022-12-11T15:30:54;55.0;;;38.0;;
21120;SDS011;12519;43.318;21.898;2022-12-11T15:35:34;55.0;;;38.0;;
21120;SDS011;12519;43.318;21.898;2022-12-11T15:40:13;55.0;;;38.0;;
21120;SDS011;12519;43.318;21.898;2022-12-11T15:44:49;27.0;;;23.0;;
21120;SDS011;12519;43.318;21.898;2022-12-11T15:49:25;27.0;;;23.0;;
21120;SDS011;12519;43.318;21.898;2022-12-11T15:54:01;22.0;;;20.0;;
21120;SDS011;12519;43.318;21.898;2022-12-11T15:58:36;22.0;;;20.0;;
21120;SDS011;12519;43.318;21.898;2022-12-11T16:03:13;17.0;;;16.0;;
21120;SDS011;12519;43.318;21.898;2022-12-11T16:07:55;17.0;;;16.0;;
21120;SDS011;12519;43.318;21.898;2022-12-11T16:12:31;17.0;;;15.0;;
21120;SDS011;12519;43.318;21.898;2022-12-11T16:17:08;17.0;;;15.0;;
21120;SDS011;12519;43.318;21.898;2022-12-11T16:21:49;17.0;;;14.0;;
21120;SDS011;12519;43.318;21.898;2022-12-11T16:26:26;17.0;;;14.0;;
21120;SDS011;12519;43.318;21.898;2022-12-11T16:31:03;18.0;;;16.0;;
21120;SDS011;12519;43.318;21.898;2022-12-11T16:35:45;18.0;;;16.0;;
21120;SDS011;12519;43.318;21.898;2022-12-11T16:40:22;18.0;;;16.0;;
21120;SDS011;12519;43.318;21.898;2022-12-11T16:45:02;19.0;;;18.0;;
21120;SDS011;12519;43.318;21.898;2022-12-11T16:49:47;19.0;;;18.0;;
21120;SDS011;12519;43.318;21.898;2022-12-11T16:54:23;18.0;;;16.0;;
21120;SDS011;12519;43.318;21.898;2022-12-11T16:58:59;18.0;;;16.0;;
21120;SDS011;12519;43.318;21.898;2022-12-11T17:03:35;16.0;;;15.0;;
21120;SDS011;12519;43.318;21.898;2022-12-11T17:08:13;16.0;;;15.0;;
21120;SDS011;12519;43.318;21.898;2022-12-11T17:12:49;16.0;;;14.0;;
21120;SDS011;12519;43.318;21.898;2022-12-11T17:17:26;16.0;;;14.0;;
21120;SDS011;12519;43.318;21.898;2022-12-11T17:22:02;15.0;;;12.0;;
21120;SDS011;12519;43.318;21.898;2022-12-11T17:26:38;15.0;;;12.0;;
21120;SDS011;12519;43.318;21.898;2022-12-11T17:31:16;20.0;;;14.0;;
21120;SDS011;12519;43.318;21.898;2022-12-11T17:35:56;20.0;;;14.0;;
21120;SDS011;12519;43.318;21.898;2022-12-11T17:40:37;20.0;;;14.0;;
21120;SDS011;12519;43.318;21.898;2022-12-11T17:45:17;25.0;;;17.0;;
21120;SDS011;12519;43.318;21.898;2022-12-11T17:49:53;25.0;;;17.0;;
21120;SDS011;12519;43.318;21.898;2022-12-11T17:54:29;22.0;;;18.0;;
21120;SDS011;12519;43.318;21.898;2022-12-11T17:59:05;22.0;;;18.0;;
21120;SDS011;12519;43.318;21.898;2022-12-11T18:03:41;20.0;;;18.0;;
21120;SDS011;12519;43.318;21.898;2022-12-11T18:08:18;20.0;;;18.0;;
21120;SDS011;12519;43.318;21.898;2022-12-11T18:12:58;17.0;;;16.0;;
21120;SDS011;12519;43.318;21.898;2022-12-11T18:17:34;17.0;;;16.0;;
21120;SDS011;12519;43.318;21.898;2022-12-11T18:22:10;14.0;;;14.0;;
21120;SDS011;12519;43.318;21.898;2022-12-11T18:26:46;14.0;;;14.0;;
21120;SDS011;12519;43.318;21.898;2022-12-11T18:31:23;14.0;;;14.0;;
21120;SDS011;12519;43.318;21.898;2022-12-11T18:35:58;14.0;;;14.0;;
21120;SDS011;12519;43.318;21.898;2022-12-11T18:40:34;14.0;;;14.0;;
21120;SDS011;12519;43.318;21.898;2022-12-11T18:45:11;15.0;;;14.0;;
21120;SDS011;12519;43.318;21.898;2022-12-11T18:49:47;15.0;;;14.0;;
21120;SDS011;12519;43.318;21.898;2022-12-11T18:54:23;16.0;;;13.0;;
21120;SDS011;12519;43.318;21.898;2022-12-11T18:59:00;16.0;;;13.0;;
21120;SDS011;12519;43.318;21.898;2022-12-11T19:03:36;16.0;;;12.0;;
21120;SDS011;12519;43.318;21.898;2022-12-11T19:08:12;16.0;;;12.0;;
21120;SDS011;12519;43.318;21.898;2022-12-11T19:12:49;16.0;;;13.0;;
21120;SDS011;12519;43.318;21.898;2022-12-11T19:17:25;16.0;;;13.0;;
21120;SDS011;12519;43.318;21.898;2022-12-11T19:22:02;15.0;;;14.0;;
21120;SDS011;12519;43.318;21.898;2022-12-11T19:26:38;15.0;;;14.0;;
21120;SDS011;12519;43.318;21.898;2022-12-11T19:31:16;18.0;;;14.0;;
21120;SDS011;12519;43.318;21.898;2022-12-11T19:36:03;18.0;;;14.0;;
21120;SDS011;12519;43.318;21.898;2022-12-11T19:40:47;18.0;;;14.0;;
21120;SDS011;12519;43.318;21.898;2022-12-11T19:45:23;21.0;;;15.0;;
21120;SDS011;12519;43.318;21.898;2022-12-11T19:49:59;21.0;;;15.0;;
21120;SDS011;12519;43.318;21.898;2022-12-11T19:54:35;23.0;;;18.0;;
21120;SDS011;12519;43.318;21.898;2022-12-11T19:59:11;23.0;;;18.0;;
21120;SDS011;12519;43.318;21.898;2022-12-11T20:03:52;25.0;;;20.0;;
21120;SDS011;12519;43.318;21.898;2022-12-11T20:08:33;25.0;;;20.0;;
21120;SDS011;12519;43.318;21.898;2022-12-11T20:13:10;24.0;;;20.0;;
21120;SDS011;12519;43.318;21.898;2022-12-11T20:17:47;24.0;;;20.0;;
21120;SDS011;12519;43.318;21.898;2022-12-11T20:22:28;22.0;;;19.0;;
21120;SDS011;12519;43.318;21.898;2022-12-11T20:27:05;22.0;;;19.0;;
21120;SDS011;12519;43.318;21.898;2022-12-11T20:31:41;22.0;;;18.0;;
21120;SDS011;12519;43.318;21.898;2022-12-11T20:36:18;22.0;;;18.0;;
21120;SDS011;12519;43.318;21.898;2022-12-11T20:40:59;22.0;;;18.0;;
21120;SDS011;12519;43.318;21.898;2022-12-11T20:45:35;21.0;;;17.0;;
21120;SDS011;12519;43.318;21.898;2022-12-11T20:50:11;21.0;;;17.0;;
21120;SDS011;12519;43.318;21.898;2022-12-11T20:54:47;24.0;;;19.0;;
21120;SDS011;12519;43.318;21.898;2022-12-11T20:59:23;24.0;;;19.0;;
21120;SDS011;12519;43.318;21.898;2022-12-11T21:03:59;26.0;;;21.0;;
21120;SDS011;12519;43.318;21.898;2022-12-11T21:08:36;26.0;;;21.0;;
21120;SDS011;12519;43.318;21.898;2022-12-11T21:13:12;29.0;;;24.0;;
21120;SDS011;12519;43.318;21.898;2022-12-11T21:17:48;29.0;;;24.0;;
21120;SDS011;12519;43.318;21.898;2022-12-11T21:22:24;32.0;;;28.0;;
21120;SDS011;12519;43.318;21.898;2022-12-11T21:27:00;32.0;;;28.0;;
21120;SDS011;12519;43.318;21.898;2022-12-11T21:31:36;30.0;;;25.0;;
21120;SDS011;12519;43.318;21.898;2022-12-11T21:36:14;30.0;;;25.0;;
21120;SDS011;12519;43.318;21.898;2022-12-11T21:40:52;30.0;;;25.0;;
21120;SDS011;12519;43.318;21.898;2022-12-11T21:45:33;27.0;;;22.0;;
21120;SDS011;12519;43.318;21.898;2022-12-11T21:50:11;27.0;;;22.0;;
21120;SDS011;12519;43.318;21.898;2022-12-11T21:54:47;28.0;;;22.0;;
21120;SDS011;12519;43.318;21.898;2022-12-11T21:59:23;28.0;;;22.0;;
21120;SDS011;12519;43.318;21.898;2022-12-11T22:03:59;28.0;;;21.0;;
21120;SDS011;12519;43.318;21.898;2022-12-11T22:08:36;28.0;;;21.0;;
21120;SDS011;12519;43.318;21.898;2022-12-11T22:13:13;26.0;;;20.0;;
21120;SDS011;12519;43.318;21.898;2022-12-11T22:17:49;26.0;;;20.0;;
21120;SDS011;12519;43.318;21.898;2022-12-11T22:22:25;24.0;;;19.0;;
21120;SDS011;12519;43.318;21.898;2022-12-11T22:27:02;24.0;;;19.0;;
21120;SDS011;12519;43.318;21.898;2022-12-11T22:31:40;26.0;;;22.0;;
21120;SDS011;12519;43.318;21.898;2022-12-11T22:36:16;26.0;;;22.0;;
21120;SDS011;12519;43.318;21.898;2022-12-11T22:40:53;26.0;;;22.0;;
21120;SDS011;12519;43.318;21.898;2022-12-11T22:45:30;27.0;;;24.0;;
21120;SDS011;12519;43.318;21.898;2022-12-11T22:50:07;27.0;;;24.0;;
21120;SDS011;12519;43.318;21.898;2022-12-11T22:54:47;32.0;;;26.0;;
21120;SDS011;12519;43.318;21.898;2022-12-11T22:59:23;32.0;;;26.0;;
21120;SDS011;12519;43.318;21.898;2022-12-11T23:03:59;38.0;;;29.0;;
21120;SDS011;12519;43.318;21.898;2022-12-11T23:08:36;38.0;;;29.0;;
21120;SDS011;12519;43.318;21.898;2022-12-11T23:13:16;39.0;;;32.0;;
21120;SDS011;12519;43.318;21.898;2022-12-11T23:17:52;39.0;;;32.0;;
21120;SDS011;12519;43.318;21.898;2022-12-11T23:22:28;40.0;;;34.0;;
21120;SDS011;12519;43.318;21.898;2022-12-11T23:27:05;40.0;;;34.0;;
21120;SDS011;12519;43.318;21.898;2022-12-11T23:31:42;34.0;;;29.0;;
21120;SDS011;12519;43.318;21.898;2022-12-11T23:36:19;34.0;;;29.0;;
21120;SDS011;12519;43.318;21.898;2022-12-11T23:40:57;34.0;;;29.0;;
21120;SDS011;12519;43.318;21.898;2022-12-11T23:45:36;28.0;;;24.0;;
21120;SDS011;12519;43.318;21.898;2022-12-11T23:50:12;28.0;;;24.0;;
21120;SDS011;12519;43.318;21.898;2022-12-11T23:54:48;30.0;;;26.0;;
21120;SDS011;12519;43.318;21.898;2022-12-11T23:59:24;30.0;;;26.0;;
